Time;durP1;ratioP1;P1;durP2;ratioP2;P2;SDS_P1;SDS_P2;PMS_P1;PMS_P2;Temp;Humidity;BMP_temperature;BMP_pressure;BME280_temperature;BME280_humidity;BME280_pressure;Samples;Min_cycle;Max_cycle;Signal;HPM_P1;HPM_P2
2023/08/27 00:01:31;;;;;;;8.00;3.28;;;33.00;99.90;;;;;;5002379;23;20046;-56
2023/08/27 00:03:57;;;;;;;8.77;2.42;;;33.00;99.90;;;;;;4974733;28;20033;-56
2023/08/27 00:06:23;;;;;;;8.40;2.42;;;32.90;99.90;;;;;;4975753;28;20073;-57
2023/08/27 00:08:50;;;;;;;7.43;2.47;;;32.90;99.90;;;;;;4975497;28;20026;-57
2023/08/27 00:11:15;;;;;;;10.23;2.65;;;32.90;99.90;;;;;;4975517;28;20105;-56
2023/08/27 00:13:41;;;;;;;8.55;2.72;;;32.90;99.90;;;;;;4975245;28;20126;-56
2023/08/27 00:16:07;;;;;;;7.72;2.55;;;32.90;99.90;;;;;;4975353;28;20023;-56
2023/08/27 00:18:33;;;;;;;8.00;3.13;;;32.90;99.90;;;;;;4975274;28;20034;-56
2023/08/27 00:20:59;;;;;;;12.05;2.83;;;32.90;99.90;;;;;;4975393;28;20095;-56
2023/08/27 00:23:24;;;;;;;6.45;2.60;;;32.90;99.90;;;;;;4975852;28;20118;-56
2023/08/27 00:25:50;;;;;;;5.55;2.58;;;32.90;99.90;;;;;;4975349;28;20109;-56
2023/08/27 00:28:16;;;;;;;9.40;3.17;;;32.90;99.90;;;;;;4973901;28;20026;-56
2023/08/27 00:30:42;;;;;;;5.05;2.42;;;32.90;99.90;;;;;;4974289;28;20491;-56
2023/08/27 00:33:08;;;;;;;7.43;2.80;;;32.90;99.90;;;;;;4974856;28;20116;-56
2023/08/27 00:35:34;;;;;;;10.50;3.80;;;32.90;99.90;;;;;;4973789;28;20058;-56
2023/08/27 00:38:00;;;;;;;7.70;2.70;;;32.90;99.90;;;;;;4974990;28;20502;-56
2023/08/27 00:40:29;;;;;;;10.55;3.60;;;32.80;99.90;;;;;;4975114;28;20039;-56
2023/08/27 00:42:56;;;;;;;5.47;2.65;;;32.90;99.90;;;;;;4975156;28;20054;-56
2023/08/27 00:45:21;;;;;;;12.50;3.28;;;32.80;99.90;;;;;;4974908;28;20034;-56
2023/08/27 00:47:48;;;;;;;7.07;3.10;;;32.90;99.90;;;;;;4974681;28;20019;-55
2023/08/27 00:50:14;;;;;;;6.13;2.77;;;32.90;99.90;;;;;;4974717;28;20039;-55
2023/08/27 00:52:42;;;;;;;7.13;2.33;;;32.90;99.90;;;;;;4974641;28;20776;-56
2023/08/27 00:55:08;;;;;;;8.40;3.25;;;32.90;99.90;;;;;;4974661;28;20038;-56
2023/08/27 00:57:36;;;;;;;7.25;2.63;;;32.90;99.90;;;;;;4974710;28;20506;-55
2023/08/27 01:00:03;;;;;;;7.82;2.70;;;32.90;99.90;;;;;;4974680;28;20030;-56
2023/08/27 01:02:29;;;;;;;6.22;2.50;;;32.90;99.90;;;;;;5003998;23;20051;-56
2023/08/27 01:04:54;;;;;;;5.30;2.70;;;32.90;99.90;;;;;;4993821;28;20030;-56
2023/08/27 01:07:31;;;;;;;7.78;2.22;;;32.80;99.90;;;;;;4994197;28;20491;-56
2023/08/27 01:10:08;;;;;;;7.28;2.45;;;32.80;99.90;;;;;;4993961;28;20479;-56
2023/08/27 01:12:45;;;;;;;8.13;2.85;;;32.80;99.90;;;;;;4993692;28;20135;-55
2023/08/27 01:15:13;;;;;;;6.47;3.35;;;32.80;99.90;;;;;;4992519;28;20096;-55
2023/08/27 01:17:39;;;;;;;6.60;2.60;;;32.80;99.90;;;;;;4993620;28;20026;-55
2023/08/27 01:20:06;;;;;;;6.83;2.30;;;32.80;99.90;;;;;;4993635;28;20022;-55
2023/08/27 01:22:32;;;;;;;7.80;2.42;;;32.80;99.90;;;;;;4993703;28;20275;-55
2023/08/27 01:24:58;;;;;;;6.07;2.20;;;32.80;99.90;;;;;;4993740;28;20030;-56
2023/08/27 01:27:33;;;;;;;6.80;2.80;;;32.80;99.90;;;;;;4992251;28;20479;-56
2023/08/27 01:30:29;;;;;;;5.22;2.17;;;32.80;99.90;;;;;;4993566;28;20034;-56
2023/08/27 01:32:57;;;;;;;6.77;2.67;;;32.70;99.90;;;;;;4976488;28;20038;-56
2023/08/27 01:35:24;;;;;;;8.48;2.88;;;32.80;99.90;;;;;;4993236;28;20259;-55
2023/08/27 01:37:50;;;;;;;7.70;3.00;;;32.80;99.90;;;;;;4993394;28;20026;-55
2023/08/27 01:40:18;;;;;;;4.68;2.17;;;32.80;99.90;;;;;;4993188;28;20030;-55
2023/08/27 01:42:44;;;;;;;8.05;2.85;;;32.80;99.90;;;;;;4992828;28;20029;-56
2023/08/27 01:45:12;;;;;;;5.63;2.83;;;32.80;99.90;;;;;;4993161;28;20157;-54
2023/08/27 01:47:38;;;;;;;6.45;2.47;;;32.70;99.90;;;;;;4993065;28;20114;-54
2023/08/27 01:50:05;;;;;;;7.68;2.65;;;32.70;99.90;;;;;;4993257;28;20109;-55
2023/08/27 01:52:31;;;;;;;;;;;32.70;99.90;;;;;;4992642;28;20092;-55
2023/08/27 01:54:57;;;;;;;4.53;2.35;;;32.70;99.90;;;;;;5008405;28;19937;-56
2023/08/27 01:57:23;;;;;;;5.93;2.70;;;32.70;99.90;;;;;;4993109;28;20069;-54
2023/08/27 01:59:48;;;;;;;7.57;2.90;;;32.70;99.90;;;;;;4993128;28;20034;-56
2023/08/27 02:02:14;;;;;;;5.35;2.47;;;32.70;99.90;;;;;;4992308;28;20125;-56
2023/08/27 02:04:40;;;;;;;7.70;3.38;;;32.70;99.90;;;;;;4993196;28;20022;-56
2023/08/27 02:07:06;;;;;;;8.52;3.80;;;32.70;99.90;;;;;;4992964;28;20383;-56
2023/08/27 02:09:32;;;;;;;5.10;2.90;;;32.70;99.90;;;;;;4993127;28;20068;-55
2023/08/27 02:11:57;;;;;;;6.82;3.70;;;32.70;99.90;;;;;;4992859;28;20149;-53
2023/08/27 02:14:23;;;;;;;7.95;3.47;;;32.70;99.90;;;;;;4992820;28;20057;-53
2023/08/27 02:16:49;;;;;;;5.72;3.25;;;32.70;99.90;;;;;;4992884;28;20106;-53
2023/08/27 02:19:15;;;;;;;4.85;2.95;;;32.70;99.90;;;;;;4992800;28;20025;-52
2023/08/27 02:21:41;;;;;;;6.70;3.72;;;32.60;99.90;;;;;;4992751;28;20564;-53
2023/08/27 02:24:06;;;;;;;7.05;3.55;;;32.60;99.90;;;;;;4992638;28;20101;-53
2023/08/27 02:26:32;;;;;;;4.72;3.13;;;32.60;99.90;;;;;;4993007;28;20045;-53
2023/08/27 02:28:58;;;;;;;5.90;3.13;;;32.60;99.90;;;;;;4992892;28;20464;-53
2023/08/27 02:31:24;;;;;;;4.82;3.30;;;32.60;99.90;;;;;;4992742;28;20073;-55
2023/08/27 02:33:49;;;;;;;5.30;3.65;;;32.60;99.90;;;;;;4992861;28;20022;-54
2023/08/27 02:36:15;;;;;;;7.63;4.30;;;32.60;99.90;;;;;;4992538;28;20042;-54
2023/08/27 02:38:41;;;;;;;5.82;3.22;;;32.60;99.90;;;;;;4992772;28;20110;-54
2023/08/27 02:41:07;;;;;;;8.77;3.73;;;32.60;99.90;;;;;;4992814;28;20027;-54
2023/08/27 02:43:33;;;;;;;6.47;4.38;;;32.60;99.90;;;;;;4992931;28;20037;-54
2023/08/27 02:45:59;;;;;;;6.13;3.55;;;32.60;99.90;;;;;;4992590;28;20030;-54
2023/08/27 02:48:24;;;;;;;7.05;3.80;;;32.50;99.90;;;;;;4992541;28;20032;-55
2023/08/27 02:50:50;;;;;;;6.18;4.18;;;32.50;99.90;;;;;;4992418;28;20047;-55
2023/08/27 02:53:16;;;;;;;7.30;4.10;;;32.50;99.90;;;;;;4992581;28;20025;-55
2023/08/27 02:55:42;;;;;;;7.50;4.15;;;32.50;99.90;;;;;;4995216;28;20058;-54
2023/08/27 02:58:07;;;;;;;9.35;3.35;;;32.50;99.90;;;;;;4996378;28;20093;-54
2023/08/27 03:00:33;;;;;;;8.75;4.00;;;32.50;99.90;;;;;;5007666;23;20015;-54
2023/08/27 03:02:59;;;;;;;6.53;3.35;;;32.50;99.90;;;;;;4996237;28;20046;-56
2023/08/27 03:05:25;;;;;;;8.00;3.88;;;32.50;99.90;;;;;;4996145;28;20025;-57
2023/08/27 03:07:50;;;;;;;4.40;3.35;;;32.50;99.90;;;;;;4996324;28;20076;-56
2023/08/27 03:10:16;;;;;;;7.85;3.53;;;32.50;99.90;;;;;;4996034;28;20495;-57
2023/08/27 03:12:42;;;;;;;6.35;3.70;;;32.40;99.90;;;;;;4996071;28;20471;-57
2023/08/27 03:15:09;;;;;;;6.60;3.13;;;32.40;99.90;;;;;;4995973;28;20037;-57
2023/08/27 03:17:34;;;;;;;5.57;2.85;;;32.40;99.90;;;;;;4996265;28;20101;-57
2023/08/27 03:20:00;;;;;;;8.88;3.30;;;32.40;99.90;;;;;;4995802;28;20157;-57
2023/08/27 03:22:26;;;;;;;4.57;3.50;;;32.40;99.90;;;;;;4995862;28;20034;-56
2023/08/27 03:24:54;;;;;;;4.07;2.50;;;32.40;99.90;;;;;;4995733;28;20026;-57
2023/08/27 03:27:19;;;;;;;5.68;3.38;;;32.40;99.90;;;;;;4995776;28;20478;-57
2023/08/27 03:29:45;;;;;;;5.97;2.97;;;32.40;99.90;;;;;;4995669;28;20042;-57
2023/08/27 03:32:13;;;;;;;4.70;2.90;;;32.40;99.90;;;;;;4995670;28;20022;-56
2023/08/27 03:34:39;;;;;;;5.55;3.08;;;32.30;99.90;;;;;;4995617;28;20542;-56
2023/08/27 03:37:05;;;;;;;7.53;3.30;;;32.30;99.90;;;;;;4995809;28;20061;-56
2023/08/27 03:39:30;;;;;;;4.85;2.60;;;32.30;99.90;;;;;;4995607;28;20052;-56
2023/08/27 03:41:56;;;;;;;6.00;2.92;;;32.30;99.90;;;;;;4994214;28;20019;-58
2023/08/27 03:44:24;;;;;;;4.15;2.72;;;32.30;99.90;;;;;;4995468;28;20027;-57
2023/08/27 03:46:50;;;;;;;3.85;2.33;;;32.30;99.90;;;;;;4995296;28;20105;-56
2023/08/27 03:49:16;;;;;;;6.22;2.78;;;32.20;99.90;;;;;;4995362;28;20435;-57
2023/08/27 03:51:41;;;;;;;4.25;2.38;;;32.30;99.90;;;;;;4994311;28;20068;-56
2023/08/27 03:54:08;;;;;;;4.72;2.30;;;32.20;99.90;;;;;;4994416;28;20137;-56
2023/08/27 03:56:33;;;;;;;3.67;2.60;;;32.20;99.90;;;;;;4995492;28;20110;-57
2023/08/27 03:58:59;;;;;;;5.80;2.58;;;32.20;99.90;;;;;;4995258;28;20497;-57
2023/08/27 04:01:25;;;;;;;4.60;2.60;;;32.20;99.90;;;;;;4994982;28;20507;-56
2023/08/27 04:03:53;;;;;;;7.88;2.30;;;32.20;99.90;;;;;;4995210;28;20094;-56
2023/08/27 04:06:18;;;;;;;4.78;2.70;;;32.20;99.90;;;;;;4993557;28;20049;-56
2023/08/27 04:08:44;;;;;;;4.18;2.42;;;32.20;99.90;;;;;;4995100;28;20463;-57
2023/08/27 04:11:11;;;;;;;4.63;2.30;;;32.20;99.90;;;;;;4995004;28;20108;-56
2023/08/27 04:13:37;;;;;;;4.72;2.15;;;32.20;99.90;;;;;;4995355;28;20070;-57
2023/08/27 04:16:06;;;;;;;4.07;2.72;;;32.10;99.90;;;;;;4994867;28;20116;-57
2023/08/27 04:18:34;;;;;;;6.70;2.03;;;32.10;99.90;;;;;;4994937;28;20491;-57
2023/08/27 04:21:00;;;;;;;2.55;2.10;;;32.10;99.90;;;;;;4994945;28;20137;-57
2023/08/27 04:23:27;;;;;;;4.95;2.20;;;32.10;99.90;;;;;;4994766;28;20481;-56
2023/08/27 04:25:54;;;;;;;3.38;1.90;;;32.10;99.90;;;;;;4994639;28;20478;-57
2023/08/27 04:28:20;;;;;;;5.22;1.73;;;32.10;99.90;;;;;;4993289;28;20041;-56
2023/08/27 04:30:50;;;;;;;4.90;2.03;;;32.00;99.90;;;;;;4994571;28;20053;-56
2023/08/27 04:33:16;;;;;;;5.78;2.03;;;32.00;99.90;;;;;;4994396;28;20386;-56
2023/08/27 04:35:44;;;;;;;4.27;2.17;;;32.00;99.90;;;;;;4994533;28;20486;-57
2023/08/27 04:38:10;;;;;;;5.38;2.10;;;32.00;99.90;;;;;;4994811;28;20391;-57
2023/08/27 04:40:36;;;;;;;5.38;2.13;;;32.00;99.90;;;;;;4993230;28;20026;-56
2023/08/27 04:43:02;;;;;;;4.28;1.88;;;31.90;99.90;;;;;;4994388;28;20037;-56
2023/08/27 04:45:28;;;;;;;4.72;1.70;;;32.00;99.90;;;;;;4994250;28;20026;-57
2023/08/27 04:47:54;;;;;;;3.38;1.65;;;32.00;99.90;;;;;;4994215;28;20022;-57
2023/08/27 04:50:20;;;;;;;2.53;1.48;;;31.90;99.90;;;;;;4994198;28;20038;-57
2023/08/27 04:52:46;;;;;;;5.90;2.15;;;31.90;99.90;;;;;;4994275;28;20083;-57
2023/08/27 04:55:12;;;;;;;5.57;1.95;;;31.80;99.90;;;;;;4994370;28;20537;-57
2023/08/27 04:57:38;;;;;;;5.18;1.50;;;31.80;99.90;;;;;;4994181;28;20444;-57
2023/08/27 05:00:09;;;;;;;6.22;1.55;;;31.90;99.90;;;;;;4993958;28;20113;-57
2023/08/27 05:02:35;;;;;;;5.53;1.73;;;31.80;99.90;;;;;;4993841;28;20125;-56
2023/08/27 05:05:02;;;;;;;2.83;1.27;;;31.80;99.90;;;;;;4993927;28;20026;-57
2023/08/27 05:07:28;;;;;;;6.60;1.87;;;31.80;99.90;;;;;;4993886;28;20034;-56
2023/08/27 05:09:54;;;;;;;3.03;1.75;;;31.70;99.90;;;;;;4992372;28;20154;-56
2023/08/27 05:12:20;;;;;;;7.10;2.17;;;31.70;99.90;;;;;;4993574;28;20030;-56
2023/08/27 05:14:46;;;;;;;3.78;1.77;;;31.70;99.90;;;;;;4993705;28;20117;-56
2023/08/27 05:17:12;;;;;;;2.78;1.58;;;31.70;99.90;;;;;;4993420;28;20360;-56
2023/08/27 05:19:37;;;;;;;5.13;1.60;;;31.70;99.90;;;;;;4993733;28;20390;-57
2023/08/27 05:22:03;;;;;;;2.45;1.17;;;31.70;99.90;;;;;;4992440;28;20077;-56
2023/08/27 05:24:29;;;;;;;10.02;1.60;;;31.70;99.90;;;;;;4993549;28;20572;-56
2023/08/27 05:26:55;;;;;;;4.38;1.20;;;31.60;99.90;;;;;;4993561;28;20467;-56
2023/08/27 05:29:21;;;;;;;3.63;1.42;;;31.60;99.90;;;;;;4993396;28;20056;-57
2023/08/27 05:31:47;;;;;;;2.92;1.83;;;31.60;99.90;;;;;;4992245;28;20026;-56
2023/08/27 05:34:14;;;;;;;3.95;1.80;;;31.60;99.90;;;;;;4993620;28;20022;-57
2023/08/27 05:36:40;;;;;;;;;;;31.60;99.90;;;;;;4993977;28;20445;-57
2023/08/27 05:39:06;;;;;;;2.75;1.25;;;31.50;99.90;;;;;;4993403;28;19910;-56
2023/08/27 05:41:32;;;;;;;6.05;1.60;;;31.50;99.90;;;;;;4993389;28;20027;-57
2023/08/27 05:43:58;;;;;;;5.15;1.60;;;31.50;99.90;;;;;;4993337;28;20030;-57
2023/08/27 05:46:24;;;;;;;2.75;1.25;;;31.50;99.90;;;;;;4993283;28;20494;-57
2023/08/27 05:48:50;;;;;;;3.80;1.40;;;31.50;99.90;;;;;;4992104;28;20077;-57
2023/08/27 05:51:16;;;;;;;2.53;1.40;;;31.50;99.90;;;;;;4993209;28;20124;-56
2023/08/27 05:53:42;;;;;;;2.95;1.08;;;31.40;99.90;;;;;;4993593;28;20479;-57
2023/08/27 05:56:09;;;;;;;4.37;1.27;;;31.40;99.90;;;;;;4993052;28;20057;-57
2023/08/27 05:58:34;;;;;;;3.42;1.35;;;31.40;99.90;;;;;;4993163;28;20263;-56
2023/08/27 06:01:02;;;;;;;3.65;1.13;;;31.40;99.90;;;;;;4992896;28;20508;-56
2023/08/27 06:03:28;;;;;;;;;;;31.40;99.90;;;;;;4993418;28;20042;-56
2023/08/27 06:05:53;;;;;;;2.50;1.42;;;31.40;99.90;;;;;;4993183;28;19945;-56
2023/08/27 06:08:19;;;;;;;2.25;1.35;;;31.40;99.90;;;;;;4992923;28;20417;-56
2023/08/27 06:10:45;;;;;;;5.75;1.40;;;31.30;99.90;;;;;;4993042;28;20529;-56
2023/08/27 06:13:11;;;;;;;4.13;1.27;;;31.30;99.90;;;;;;4992999;28;20022;-56
2023/08/27 06:15:40;;;;;;;4.93;2.05;;;31.30;99.90;;;;;;4991663;28;20026;-56
2023/08/27 06:18:07;;;;;;;1.58;1.15;;;31.30;99.90;;;;;;4992892;28;20027;-56
2023/08/27 06:20:33;;;;;;;9.20;2.10;;;31.30;99.90;;;;;;4992845;28;20099;-57
2023/08/27 06:23:00;;;;;;;2.05;1.23;;;31.30;99.90;;;;;;4992924;28;20061;-57
2023/08/27 06:25:26;;;;;;;2.80;1.33;;;31.30;99.90;;;;;;4992830;28;20475;-56
2023/08/27 06:27:55;;;;;;;2.40;1.33;;;31.30;99.90;;;;;;4992870;28;20105;-56
2023/08/27 06:30:21;;;;;;;4.13;1.25;;;31.30;99.90;;;;;;4996784;28;20042;-56
2023/08/27 06:32:47;;;;;;;5.60;1.60;;;31.20;99.90;;;;;;4996952;28;20387;-57
2023/08/27 06:35:13;;;;;;;2.50;1.38;;;31.20;99.90;;;;;;4996938;28;20027;-57
2023/08/27 06:37:39;;;;;;;4.00;1.40;;;31.20;99.90;;;;;;4996651;28;20026;-57
2023/08/27 06:40:05;;;;;;;6.03;1.65;;;31.20;99.90;;;;;;4996659;28;20101;-57
2023/08/27 06:42:31;;;;;;;3.88;1.55;;;31.20;99.90;;;;;;4996700;28;20027;-56
2023/08/27 06:44:56;;;;;;;4.28;1.42;;;31.20;99.90;;;;;;4996706;28;20025;-55
2023/08/27 06:47:22;;;;;;;4.10;1.40;;;31.20;99.90;;;;;;4996535;28;20076;-56
2023/08/27 06:49:49;;;;;;;6.82;1.65;;;31.20;99.90;;;;;;4995076;28;20121;-56
2023/08/27 06:52:15;;;;;;;8.57;1.77;;;31.20;99.90;;;;;;4996505;28;20037;-56
2023/08/27 06:54:41;;;;;;;5.47;1.65;;;31.20;99.90;;;;;;4996409;28;20022;-56
2023/08/27 06:57:06;;;;;;;5.97;1.40;;;31.20;99.90;;;;;;4996410;28;20533;-56
2023/08/27 06:59:32;;;;;;;3.58;1.38;;;31.20;99.90;;;;;;4996247;28;20048;-56
2023/08/27 07:01:58;;;;;;;8.30;1.70;;;31.20;99.90;;;;;;4996095;28;20050;-56
2023/08/27 07:04:24;;;;;;;3.92;1.58;;;31.20;99.90;;;;;;4994967;28;20030;-56
2023/08/27 07:06:49;;;;;;;4.28;1.98;;;31.20;99.90;;;;;;4996105;28;20073;-56
2023/08/27 07:09:15;;;;;;;5.10;2.15;;;31.20;99.90;;;;;;4996510;28;20018;-56
2023/08/27 07:11:41;;;;;;;10.00;1.83;;;31.20;99.90;;;;;;4996019;28;20034;-56
2023/08/27 07:14:07;;;;;;;7.25;1.88;;;31.20;99.90;;;;;;4996376;28;20019;-56
2023/08/27 07:16:32;;;;;;;4.78;1.70;;;31.20;99.90;;;;;;4996020;28;20110;-56
2023/08/27 07:18:58;;;;;;;4.32;1.55;;;31.20;99.90;;;;;;4995905;28;20382;-56
2023/08/27 07:21:24;;;;;;;5.95;1.65;;;31.20;99.90;;;;;;4995813;28;20027;-56
2023/08/27 07:23:49;;;;;;;5.30;2.13;;;31.20;99.90;;;;;;4994502;28;20035;-56
2023/08/27 07:26:15;;;;;;;5.82;1.95;;;31.20;99.90;;;;;;4996240;28;20101;-55
2023/08/27 07:28:41;;;;;;;3.67;1.45;;;31.30;99.90;;;;;;4995790;28;20018;-56
2023/08/27 07:31:07;;;;;;;5.90;1.70;;;31.30;99.90;;;;;;4995585;28;20030;-56
2023/08/27 07:33:34;;;;;;;3.95;1.60;;;31.30;99.90;;;;;;4995703;28;20112;-56
2023/08/27 07:36:00;;;;;;;4.60;1.42;;;31.30;99.90;;;;;;4994446;28;20031;-56
2023/08/27 07:38:26;;;;;;;2.88;1.70;;;31.30;99.90;;;;;;4995556;28;20360;-56
2023/08/27 07:40:52;;;;;;;5.88;1.70;;;31.30;99.90;;;;;;4995028;28;20446;-56
2023/08/27 07:43:19;;;;;;;5.53;2.13;;;31.30;99.90;;;;;;4995691;28;20033;-56
2023/08/27 07:45:45;;;;;;;8.53;2.27;;;31.30;99.90;;;;;;4995552;28;20077;-56
2023/08/27 07:48:10;;;;;;;3.28;1.15;;;31.30;99.90;;;;;;4995330;28;20268;-56
2023/08/27 07:50:38;;;;;;;4.25;1.40;;;31.30;99.90;;;;;;4995141;28;20052;-56
2023/08/27 07:53:04;;;;;;;4.28;1.58;;;31.30;99.90;;;;;;4995293;28;20026;-56
2023/08/27 07:55:31;;;;;;;4.10;1.52;;;31.30;99.90;;;;;;4995401;28;20482;-56
2023/08/27 07:57:58;;;;;;;10.32;2.13;;;31.30;99.90;;;;;;4995210;28;20137;-55
2023/08/27 08:00:24;;;;;;;6.30;1.60;;;31.40;99.90;;;;;;4995030;28;20113;-55
2023/08/27 08:02:50;;;;;;;6.15;1.50;;;31.40;99.90;;;;;;4995422;28;20186;-56
2023/08/27 08:05:15;;;;;;;3.08;1.38;;;31.40;99.90;;;;;;4995032;28;20026;-56
2023/08/27 08:07:42;;;;;;;2.55;1.30;;;31.40;99.90;;;;;;4993748;28;20030;-56
2023/08/27 08:10:08;;;;;;;3.07;1.57;;;31.40;99.90;;;;;;4994922;28;20030;-56
2023/08/27 08:12:34;;;;;;;3.88;1.42;;;31.40;99.90;;;;;;4995041;28;20030;-56
2023/08/27 08:15:00;;;;;;;3.95;1.65;;;31.40;99.90;;;;;;4994903;28;20083;-57
2023/08/27 08:17:25;;;;;;;3.10;1.60;;;31.40;99.90;;;;;;4994903;28;20518;-56
2023/08/27 08:19:52;;;;;;;2.22;1.55;;;31.40;99.90;;;;;;4994956;28;20026;-56
2023/08/27 08:22:18;;;;;;;1.90;1.33;;;31.40;99.90;;;;;;4993936;28;20022;-55
2023/08/27 08:24:43;;;;;;;3.92;1.65;;;31.40;99.90;;;;;;4994680;28;20018;-56
2023/08/27 08:27:09;;;;;;;6.18;2.08;;;31.40;99.90;;;;;;4994680;28;20031;-56
2023/08/27 08:29:35;;;;;;;5.40;2.17;;;31.40;99.90;;;;;;4994521;28;20031;-56
2023/08/27 08:32:01;;;;;;;3.53;1.92;;;31.40;99.90;;;;;;4993289;28;20026;-56
2023/08/27 08:34:27;;;;;;;4.03;2.10;;;31.40;99.90;;;;;;4994512;28;20026;-56
2023/08/27 08:36:54;;;;;;;4.77;2.47;;;31.40;99.90;;;;;;4994433;28;20352;-56
2023/08/27 08:39:20;;;;;;;3.40;2.40;;;31.40;99.90;;;;;;4994636;28;20326;-56
2023/08/27 08:42:13;;;;;;;6.28;2.95;;;31.40;99.90;;;;;;4993126;28;20034;-56
2023/08/27 08:45:15;;;;;;;4.70;3.40;;;31.40;99.90;;;;;;4975330;28;20050;-57
2023/08/27 08:47:43;;;;;;;5.95;3.00;;;31.40;99.90;;;;;;4971839;28;20125;-56
2023/08/27 08:50:12;;;;;;;7.40;3.35;;;31.40;99.90;;;;;;4994052;28;20038;-56
2023/08/27 08:52:39;;;;;;;6.97;3.10;;;31.40;99.90;;;;;;4993204;28;20026;-56
2023/08/27 08:55:09;;;;;;;3.38;2.60;;;31.50;99.90;;;;;;4994224;28;20101;-57
2023/08/27 08:57:43;;;;;;;3.88;2.75;;;31.50;99.90;;;;;;4992769;28;20022;-56
2023/08/27 09:00:11;;;;;;;5.65;3.03;;;31.50;99.90;;;;;;4993993;28;20487;-56
2023/08/27 09:02:38;;;;;;;5.00;2.45;;;31.50;99.90;;;;;;4993866;28;20105;-56
2023/08/27 09:05:05;;;;;;;6.93;3.00;;;31.50;99.90;;;;;;4994109;28;20474;-55
2023/08/27 09:07:33;;;;;;;;;;;31.50;99.90;;;;;;4994464;28;20034;-56
2023/08/27 09:09:59;;;;;;;;;;;31.50;99.90;;;;;;4994249;28;19925;-56
2023/08/27 09:12:26;;;;;;;5.50;3.15;;;31.50;99.90;;;;;;4993906;28;19967;-55
2023/08/27 09:14:52;;;;;;;4.47;2.90;;;31.50;99.90;;;;;;4994154;28;20398;-57
2023/08/27 09:17:19;;;;;;;6.07;3.05;;;31.50;99.90;;;;;;4992549;28;20030;-56
2023/08/27 09:19:46;;;;;;;6.20;3.55;;;31.50;99.90;;;;;;4993762;28;20037;-56
2023/08/27 09:22:14;;;;;;;4.18;3.28;;;31.50;99.90;;;;;;4993541;28;20076;-56
2023/08/27 09:24:40;;;;;;;6.50;3.28;;;31.50;99.90;;;;;;4992284;28;20030;-56
2023/08/27 09:27:06;;;;;;;7.57;3.70;;;31.50;99.90;;;;;;4993609;28;20105;-56
2023/08/27 09:29:33;;;;;;;6.82;4.45;;;31.50;99.90;;;;;;4993322;28;20173;-56
2023/08/27 09:31:59;;;;;;;5.97;4.32;;;31.50;99.90;;;;;;4993565;28;20479;-56
2023/08/27 09:34:25;;;;;;;5.05;3.58;;;31.50;99.90;;;;;;4993472;28;20034;-56
2023/08/27 09:36:51;;;;;;;5.93;3.33;;;31.50;99.90;;;;;;4993546;28;20364;-56
2023/08/27 09:39:18;;;;;;;5.90;3.55;;;31.50;99.90;;;;;;4993359;28;20037;-56
2023/08/27 09:41:45;;;;;;;6.93;4.38;;;31.50;99.90;;;;;;4993305;28;20022;-56
2023/08/27 09:44:12;;;;;;;7.63;3.83;;;31.50;99.90;;;;;;4993317;28;20037;-56
2023/08/27 09:46:40;;;;;;;6.43;3.88;;;31.50;99.90;;;;;;4993319;28;20018;-56
2023/08/27 09:49:08;;;;;;;9.25;5.65;;;31.50;99.90;;;;;;4993149;28;20058;-56
2023/08/27 09:51:39;;;;;;;18.33;8.77;;;31.60;99.90;;;;;;4993144;28;20037;-57
2023/08/27 09:54:19;;;;;;;13.40;8.68;;;31.60;99.90;;;;;;4993129;28;20030;-56
2023/08/27 09:56:47;;;;;;;12.35;7.10;;;31.50;99.90;;;;;;4993151;28;20077;-56
2023/08/27 09:59:17;;;;;;;8.65;6.82;;;31.60;99.90;;;;;;4993162;28;20048;-57
2023/08/27 10:01:48;;;;;;;10.40;6.97;;;31.60;99.90;;;;;;4991648;28;20046;-57
2023/08/27 10:04:14;;;;;;;10.15;6.47;;;31.60;99.90;;;;;;4992748;28;20146;-57
2023/08/27 10:06:40;;;;;;;9.88;5.82;;;31.60;99.90;;;;;;4993028;28;20094;-57
2023/08/27 10:09:06;;;;;;;9.80;6.57;;;31.60;99.90;;;;;;4991572;28;20089;-57
2023/08/27 10:11:33;;;;;;;10.55;6.22;;;31.60;99.90;;;;;;4991772;28;20026;-56
2023/08/27 10:13:59;;;;;;;11.70;6.55;;;31.60;99.90;;;;;;4991678;28;20029;-55
2023/08/27 10:16:28;;;;;;;11.30;7.00;;;31.60;99.90;;;;;;4991942;28;20029;-55
2023/08/27 10:18:54;;;;;;;12.85;8.32;;;31.70;99.90;;;;;;4993145;28;20022;-55
2023/08/27 10:21:20;;;;;;;11.27;8.07;;;31.60;99.90;;;;;;4992710;28;20026;-55
2023/08/27 10:23:46;;;;;;;13.38;9.68;;;31.60;99.90;;;;;;4993048;28;20026;-56
2023/08/27 10:26:14;;;;;;;13.07;9.07;;;31.60;99.90;;;;;;4992864;28;20034;-56
2023/08/27 10:28:40;;;;;;;14.57;9.55;;;31.70;99.90;;;;;;4992652;28;20038;-56
2023/08/27 10:31:07;;;;;;;14.77;9.05;;;31.70;99.90;;;;;;4992523;28;20042;-56
2023/08/27 10:33:33;;;;;;;14.55;9.68;;;31.70;99.90;;;;;;4992860;28;20061;-56
2023/08/27 10:36:05;;;;;;;12.35;8.75;;;31.70;99.90;;;;;;4992705;28;20034;-56
2023/08/27 10:38:34;;;;;;;11.10;8.20;;;31.70;99.90;;;;;;4992624;28;20113;-56
2023/08/27 10:41:02;;;;;;;11.30;8.32;;;31.70;99.90;;;;;;4992591;28;20026;-56
2023/08/27 10:43:33;;;;;;;10.82;6.97;;;31.80;99.90;;;;;;4992774;28;20085;-56
2023/08/27 10:46:15;;;;;;;10.93;6.70;;;31.80;99.90;;;;;;4992943;28;20098;-56
2023/08/27 10:48:49;;;;;;;8.82;6.97;;;31.80;99.90;;;;;;4992563;28;20022;-56
2023/08/27 10:51:17;;;;;;;9.90;6.47;;;31.80;99.90;;;;;;4992505;28;20034;-56
2023/08/27 10:53:49;;;;;;;8.40;5.50;;;31.80;99.90;;;;;;4992394;28;20025;-57
2023/08/27 10:56:32;;;;;;;10.32;5.22;;;31.80;99.90;;;;;;4992403;28;20022;-57
2023/08/27 10:59:03;;;;;;;7.47;5.10;;;31.80;99.90;;;;;;4992677;28;20088;-56
2023/08/27 11:01:49;;;;;;;7.22;4.22;;;31.80;99.90;;;;;;4991262;28;20097;-56
2023/08/27 11:04:17;;;;;;;6.97;4.30;;;31.80;99.90;;;;;;4985156;28;20038;-56
2023/08/27 11:06:46;;;;;;;;;;;31.80;99.90;;;;;;4992740;28;20037;-56
2023/08/27 11:09:27;;;;;;;7.18;4.28;;;31.90;99.90;;;;;;4990992;28;20274;-55
2023/08/27 11:11:55;;;;;;;7.22;3.63;;;31.90;99.90;;;;;;4992405;28;20467;-55
2023/08/27 11:14:24;;;;;;;6.35;3.30;;;31.90;99.90;;;;;;4992364;28;20026;-55
2023/08/27 11:16:58;;;;;;;5.28;3.40;;;31.90;99.90;;;;;;4995224;28;20042;-56
2023/08/27 11:19:31;;;;;;;8.88;3.97;;;31.90;99.90;;;;;;4995966;28;20022;-56
2023/08/27 11:22:10;;;;;;;9.68;5.22;;;31.90;99.90;;;;;;4996225;28;20049;-56
2023/08/27 11:24:43;;;;;;;11.70;8.68;;;31.90;99.90;;;;;;4995830;28;20053;-57
2023/08/27 11:27:10;;;;;;;13.02;9.68;;;31.90;99.90;;;;;;4995752;28;20502;-56
2023/08/27 11:29:40;;;;;;;16.60;11.90;;;31.90;99.90;;;;;;4995726;28;20037;-56
2023/08/27 11:32:07;;;;;;;18.92;13.80;;;31.90;99.90;;;;;;4995711;28;20034;-56
2023/08/27 11:34:35;;;;;;;22.02;16.45;;;31.90;99.90;;;;;;4994213;28;20027;-56
2023/08/27 11:37:01;;;;;;;;;;;31.90;99.90;;;;;;4996061;28;20022;-56
2023/08/27 11:39:28;;;;;;;22.77;16.73;;;32.00;99.90;;;;;;4995738;28;19960;-55
2023/08/27 11:41:54;;;;;;;27.15;16.58;;;32.00;99.90;;;;;;4995488;28;20105;-55
2023/08/27 11:44:20;;;;;;;22.02;15.73;;;32.00;99.90;;;;;;4995583;28;20022;-55
2023/08/27 11:46:46;;;;;;;21.65;15.00;;;32.00;99.90;;;;;;4995317;28;20036;-55
2023/08/27 11:49:15;;;;;;;19.00;12.77;;;32.00;99.90;;;;;;4995176;28;20099;-56
2023/08/27 11:51:42;;;;;;;16.30;12.38;;;32.00;99.90;;;;;;4995369;28;20050;-56
2023/08/27 11:54:10;;;;;;;17.00;11.20;;;32.00;99.90;;;;;;4995190;28;20022;-56
2023/08/27 11:56:36;;;;;;;16.40;10.23;;;32.00;99.90;;;;;;4995193;28;20027;-55
2023/08/27 11:59:04;;;;;;;15.25;10.20;;;32.00;99.90;;;;;;4995485;28;20029;-55
2023/08/27 12:01:31;;;;;;;13.48;8.82;;;32.00;99.90;;;;;;4995371;28;20046;-55
2023/08/27 12:03:57;;;;;;;13.88;8.57;;;32.00;99.90;;;;;;4977759;28;20038;-55
2023/08/27 12:06:28;;;;;;;14.35;8.20;;;32.10;99.90;;;;;;4995011;28;20056;-56
2023/08/27 12:08:55;;;;;;;10.13;7.60;;;32.00;99.90;;;;;;4995010;28;20441;-56
2023/08/27 12:11:27;;;;;;;11.63;7.15;;;32.00;99.90;;;;;;4993563;28;20080;-56
2023/08/27 12:14:00;;;;;;;10.13;7.15;;;32.00;99.90;;;;;;4995015;28;20034;-55
2023/08/27 12:16:34;;;;;;;10.50;6.60;;;32.00;99.90;;;;;;4994965;28;20471;-56
2023/08/27 12:19:07;;;;;;;8.68;6.25;;;32.10;99.90;;;;;;4995047;28;20092;-56
2023/08/27 12:21:34;;;;;;;8.68;6.22;;;32.00;99.90;;;;;;4994945;28;20430;-56
2023/08/27 12:24:00;;;;;;;10.98;6.07;;;32.00;99.90;;;;;;4994812;28;20049;-56
2023/08/27 12:26:27;;;;;;;7.78;5.28;;;32.00;99.90;;;;;;4994678;28;20015;-55
2023/08/27 12:28:53;;;;;;;7.67;4.87;;;32.00;99.90;;;;;;4994500;28;20026;-55
2023/08/27 12:31:24;;;;;;;9.48;4.97;;;32.10;99.90;;;;;;4994423;28;20479;-56
2023/08/27 12:33:55;;;;;;;11.20;5.20;;;32.10;99.90;;;;;;4994590;28;20022;-55
2023/08/27 12:36:24;;;;;;;8.88;4.78;;;32.10;99.90;;;;;;4994498;28;20038;-55
2023/08/27 12:38:50;;;;;;;7.53;4.22;;;32.10;99.90;;;;;;4994523;28;20469;-55
2023/08/27 12:41:15;;;;;;;6.57;4.07;;;32.10;99.90;;;;;;4994385;28;20030;-55
2023/08/27 12:43:41;;;;;;;7.90;3.95;;;32.10;99.90;;;;;;4994385;28;20018;-55
2023/08/27 12:46:07;;;;;;;6.88;3.83;;;32.10;99.90;;;;;;4994401;28;20383;-55